createdAt,value
2019-02-09T00:00:18.706Z,13.60
2019-02-09T00:02:46.934Z,15.70
2019-02-09T00:05:15.209Z,12.30
2019-02-09T00:07:43.461Z,12.63
2019-02-09T00:10:11.632Z,10.70
2019-02-09T00:12:41.217Z,13.63
2019-02-09T00:15:10.097Z,13.35
2019-02-09T00:17:38.308Z,11.40
2019-02-09T00:22:33.848Z,11.30
2019-02-09T00:25:02.075Z,12.90
2019-02-09T00:27:30.273Z,12.73
2019-02-09T00:29:58.485Z,13.43
2019-02-09T00:32:26.698Z,15.60
2019-02-09T00:34:54.929Z,14.90
2019-02-09T00:37:23.109Z,12.53
2019-02-09T00:39:51.331Z,14.40
2019-02-09T00:42:19.527Z,13.80
2019-02-09T00:44:47.748Z,14.07
2019-02-09T00:47:15.961Z,12.97
2019-02-09T00:49:44.136Z,13.17
2019-02-09T00:52:12.377Z,12.77
2019-02-09T00:54:40.582Z,14.03
2019-02-09T00:57:08.780Z,13.20
2019-02-09T00:59:36.987Z,14.17
2019-02-09T01:02:05.383Z,11.70
2019-02-09T01:04:33.665Z,14.13
2019-02-09T01:07:01.878Z,14.23
2019-02-09T01:09:30.063Z,14.57
2019-02-09T01:11:58.273Z,16.77
2019-02-09T01:14:26.483Z,15.43
2019-02-09T01:16:57.213Z,14.70
2019-02-09T01:19:25.393Z,18.33
2019-02-09T01:21:53.633Z,14.70
2019-02-09T01:24:21.845Z,14.70
2019-02-09T01:26:51.736Z,16.13
2019-02-09T01:29:19.912Z,16.30
2019-02-09T01:31:48.150Z,15.90
2019-02-09T01:34:16.322Z,10.67
2019-02-09T01:36:44.523Z,14.60
2019-02-09T01:39:12.739Z,14.27
2019-02-09T01:41:41.125Z,14.53
2019-02-09T01:44:09.337Z,14.90
2019-02-09T01:46:37.547Z,14.40
2019-02-09T01:49:05.720Z,15.37
2019-02-09T01:51:33.915Z,16.67
2019-02-09T01:54:02.140Z,14.77
2019-02-09T01:56:30.417Z,13.53
2019-02-09T01:58:58.620Z,12.17
2019-02-09T02:01:26.836Z,13.80
2019-02-09T02:03:55.020Z,14.90
2019-02-09T02:06:23.248Z,13.53
2019-02-09T02:08:51.545Z,12.97
2019-02-09T02:11:19.716Z,13.00
2019-02-09T02:13:47.933Z,15.13
2019-02-09T02:16:17.128Z,14.50
2019-02-09T02:18:45.357Z,14.20
2019-02-09T02:21:13.544Z,14.80
2019-02-09T02:23:41.723Z,15.07
2019-02-09T02:26:09.945Z,13.77
2019-02-09T02:28:38.152Z,11.07
2019-02-09T02:31:06.372Z,10.00
2019-02-09T02:33:34.693Z,11.50
2019-02-09T02:36:02.952Z,9.87
2019-02-09T02:38:31.184Z,12.63
2019-02-09T02:40:59.452Z,11.17
2019-02-09T02:43:27.635Z,11.63
2019-02-09T02:45:55.861Z,14.47
2019-02-09T02:48:24.069Z,11.20
2019-02-09T02:50:52.332Z,10.37
2019-02-09T02:53:20.541Z,11.30
2019-02-09T02:55:48.822Z,10.63
2019-02-09T02:58:17.086Z,10.37
2019-02-09T03:00:45.289Z,11.97
2019-02-09T03:03:13.498Z,11.63
2019-02-09T03:05:41.753Z,8.10
2019-02-09T03:08:09.919Z,7.97
2019-02-09T03:10:38.091Z,13.80
2019-02-09T03:13:06.329Z,11.13
2019-02-09T03:15:35.101Z,7.73
2019-02-09T03:18:04.252Z,12.17
2019-02-09T03:20:32.429Z,8.67
2019-02-09T03:23:00.595Z,8.80
2019-02-09T03:25:32.749Z,7.23
2019-02-09T03:28:00.929Z,10.40
2019-02-09T03:30:29.191Z,9.80
2019-02-09T03:32:57.650Z,5.95
2019-02-09T03:35:26.000Z,6.60
2019-02-09T03:37:54.246Z,7.50
2019-02-09T03:40:24.005Z,6.73
2019-02-09T03:42:52.247Z,5.20
2019-02-09T03:45:30.376Z,7.23
2019-02-09T03:47:58.852Z,7.13
2019-02-09T03:50:28.659Z,8.87
2019-02-09T03:52:57.167Z,8.73
2019-02-09T03:55:25.408Z,6.30
2019-02-09T03:57:53.669Z,8.67
2019-02-09T04:00:22.854Z,7.13
2019-02-09T04:02:51.265Z,5.87
2019-02-09T04:05:19.465Z,8.57
2019-02-09T04:07:47.676Z,5.77
2019-02-09T04:10:17.377Z,9.40
2019-02-09T04:12:45.573Z,4.47
2019-02-09T04:15:16.318Z,8.60
2019-02-09T04:17:44.511Z,6.80
2019-02-09T04:20:13.754Z,6.53
2019-02-09T04:22:42.001Z,5.80
2019-02-09T04:25:11.462Z,7.80
2019-02-09T04:27:39.632Z,9.53
2019-02-09T04:30:10.503Z,5.70
2019-02-09T04:32:38.897Z,8.13
2019-02-09T04:35:07.943Z,6.57
2019-02-09T04:37:36.124Z,7.63
2019-02-09T04:40:05.885Z,6.43
2019-02-09T04:42:34.085Z,8.37
2019-02-09T04:45:02.295Z,4.67
2019-02-09T04:47:30.478Z,7.53
2019-02-09T04:49:58.674Z,5.03
2019-02-09T04:52:26.897Z,5.47
2019-02-09T04:54:55.068Z,4.53
2019-02-09T04:57:23.268Z,3.20
2019-02-09T04:59:51.440Z,3.27
2019-02-09T05:02:19.630Z,4.23
2019-02-09T05:04:47.803Z,3.60
2019-02-09T05:07:16.026Z,4.03
2019-02-09T05:09:44.211Z,6.23
2019-02-09T05:12:12.380Z,4.87
2019-02-09T05:14:41.473Z,5.03
2019-02-09T05:17:10.698Z,3.90
2019-02-09T05:19:38.901Z,3.90
2019-02-09T05:22:07.072Z,5.00
2019-02-09T05:24:35.302Z,3.03
2019-02-09T05:27:04.481Z,4.83
2019-02-09T05:29:32.689Z,8.23
2019-02-09T05:32:00.876Z,4.33
2019-02-09T05:34:30.377Z,6.80
2019-02-09T05:36:58.549Z,5.53
2019-02-09T05:39:26.732Z,4.13
2019-02-09T05:41:54.933Z,3.80
2019-02-09T05:44:23.142Z,4.80
2019-02-09T05:46:51.402Z,3.60
2019-02-09T05:49:20.585Z,3.00
2019-02-09T05:51:48.985Z,4.17
2019-02-09T05:54:17.221Z,4.10
2019-02-09T05:56:45.426Z,4.17
2019-02-09T05:59:14.201Z,3.43
2019-02-09T06:01:42.437Z,5.70
2019-02-09T06:04:10.637Z,4.97
2019-02-09T06:06:38.841Z,7.03
2019-02-09T06:09:07.196Z,4.10
2019-02-09T06:11:35.486Z,5.73
2019-02-09T06:14:04.296Z,8.00
2019-02-09T06:16:32.537Z,6.63
2019-02-09T06:19:00.976Z,4.27
2019-02-09T06:21:29.153Z,4.73
2019-02-09T06:23:57.336Z,4.73
2019-02-09T06:26:25.523Z,3.97
2019-02-09T06:28:53.708Z,5.93
2019-02-09T06:31:21.945Z,8.57
2019-02-09T06:33:50.129Z,4.53
2019-02-09T06:36:18.334Z,10.63
2019-02-09T06:38:46.544Z,4.83
2019-02-09T06:41:14.753Z,5.53
2019-02-09T06:43:43.052Z,7.20
2019-02-09T06:46:11.224Z,5.77
2019-02-09T06:48:39.422Z,5.10
2019-02-09T06:51:07.626Z,7.57
2019-02-09T06:53:35.884Z,6.70
2019-02-09T06:56:04.392Z,6.10
2019-02-09T06:58:32.627Z,6.07
2019-02-09T07:01:00.841Z,6.50
2019-02-09T07:03:29.027Z,5.87
2019-02-09T07:05:57.228Z,7.30
2019-02-09T07:08:25.429Z,5.33
2019-02-09T07:10:53.646Z,5.90
2019-02-09T07:13:21.851Z,5.80
2019-02-09T07:15:50.049Z,9.00
2019-02-09T07:18:18.252Z,9.23
2019-02-09T07:20:46.525Z,10.03
2019-02-09T07:23:14.749Z,6.87
2019-02-09T07:25:42.993Z,7.13
2019-02-09T07:28:11.217Z,5.37
2019-02-09T07:30:39.392Z,4.65
2019-02-09T07:33:07.864Z,5.77
2019-02-09T07:35:36.101Z,6.50
2019-02-09T07:38:05.064Z,9.77
2019-02-09T07:40:33.244Z,9.07
2019-02-09T07:43:01.429Z,5.03
2019-02-09T07:45:30.467Z,5.50
2019-02-09T07:47:58.681Z,8.90
2019-02-09T07:50:27.495Z,7.73
2019-02-09T07:52:55.977Z,6.97
2019-02-09T07:55:25.127Z,5.63
2019-02-09T07:57:53.386Z,8.83
2019-02-09T08:00:32.170Z,6.85
2019-02-09T08:03:00.343Z,10.23
2019-02-09T08:05:29.104Z,8.60
2019-02-09T08:07:57.648Z,6.90
2019-02-09T08:10:29.941Z,8.33
2019-02-09T08:12:58.520Z,7.37
2019-02-09T08:15:28.719Z,7.10
2019-02-09T08:17:56.884Z,8.10
2019-02-09T08:20:25.960Z,13.33
2019-02-09T08:22:54.833Z,9.43
2019-02-09T08:25:43.849Z,6.53
2019-02-09T08:28:12.498Z,11.33
2019-02-09T08:30:42.731Z,7.63
2019-02-09T08:33:11.002Z,12.63
2019-02-09T08:35:40.421Z,10.43
2019-02-09T08:38:09.236Z,13.00
2019-02-09T08:40:37.438Z,6.90
2019-02-09T08:43:05.638Z,9.53
2019-02-09T08:45:34.786Z,12.40
2019-02-09T08:48:03.135Z,7.33
2019-02-09T08:50:38.865Z,8.83
2019-02-09T08:53:07.092Z,5.67
2019-02-09T08:55:35.301Z,6.87
2019-02-09T08:58:03.784Z,10.20
2019-02-09T09:00:33.128Z,10.57
2019-02-09T09:03:01.336Z,7.20
2019-02-09T09:05:29.533Z,9.10
2019-02-09T09:07:58.496Z,6.40
2019-02-09T09:10:30.559Z,6.03
2019-02-09T09:13:01.805Z,4.90
2019-02-09T09:15:31.527Z,5.70
2019-02-09T09:17:59.732Z,9.33
2019-02-09T09:20:30.340Z,5.53
2019-02-09T09:22:58.580Z,4.83
2019-02-09T09:25:26.796Z,5.00
2019-02-09T09:27:54.972Z,10.13
2019-02-09T09:30:24.374Z,3.50
2019-02-09T09:32:52.741Z,5.83
2019-02-09T09:35:21.180Z,7.30
2019-02-09T09:37:49.480Z,7.37
2019-02-09T09:40:19.187Z,5.37
2019-02-09T09:42:47.425Z,5.30
2019-02-09T09:45:17.359Z,5.77
2019-02-09T09:47:45.594Z,2.70
2019-02-09T09:50:15.596Z,2.90
2019-02-09T09:52:43.791Z,7.50
2019-02-09T09:55:11.972Z,3.60
2019-02-09T09:57:40.176Z,4.57
2019-02-09T10:00:09.883Z,3.45
2019-02-09T10:02:38.095Z,5.20
2019-02-09T10:05:07.572Z,3.40
2019-02-09T10:07:35.769Z,9.30
2019-02-09T10:10:05.521Z,4.33
2019-02-09T10:12:34.605Z,5.80
2019-02-09T10:15:03.285Z,3.15
2019-02-09T10:17:31.452Z,4.17
2019-02-09T10:19:59.717Z,3.50
2019-02-09T10:22:27.952Z,2.37
2019-02-09T10:24:56.233Z,3.23
2019-02-09T10:27:24.427Z,2.90
2019-02-09T10:29:52.634Z,3.57
2019-02-09T10:32:20.829Z,2.87
2019-02-09T10:34:49.009Z,5.77
2019-02-09T10:37:17.233Z,2.50
2019-02-09T10:39:45.475Z,6.17
2019-02-09T10:42:13.718Z,3.00
2019-02-09T10:44:42.784Z,4.07
2019-02-09T10:47:10.985Z,3.20
2019-02-09T10:49:40.105Z,3.83
2019-02-09T10:52:08.272Z,3.50
2019-02-09T10:54:36.476Z,3.20
2019-02-09T10:57:04.644Z,3.27
2019-02-09T10:59:32.819Z,3.87
2019-02-09T11:02:01.040Z,3.40
2019-02-09T11:04:29.269Z,2.40
2019-02-09T11:06:57.503Z,3.93
2019-02-09T11:09:26.625Z,2.47
2019-02-09T11:11:55.780Z,4.60
2019-02-09T11:14:24.098Z,2.60
2019-02-09T11:16:52.267Z,2.37
2019-02-09T11:19:20.497Z,2.07
2019-02-09T11:21:49.864Z,3.20
2019-02-09T11:24:18.177Z,2.27
2019-02-09T11:26:46.401Z,2.23
2019-02-09T11:29:14.592Z,4.40
2019-02-09T11:31:42.858Z,1.90
2019-02-09T11:34:11.054Z,4.17
2019-02-09T11:36:39.252Z,1.57
2019-02-09T11:39:07.507Z,3.20
2019-02-09T11:41:35.713Z,2.50
2019-02-09T11:44:04.101Z,2.57
2019-02-09T11:46:32.309Z,1.83
2019-02-09T11:49:00.523Z,2.10
2019-02-09T11:51:28.689Z,3.17
2019-02-09T11:53:56.867Z,4.20
2019-02-09T11:56:25.161Z,2.47
2019-02-09T11:58:53.359Z,3.50
2019-02-09T12:01:22.424Z,6.90
2019-02-09T12:03:50.608Z,2.10
2019-02-09T12:06:18.816Z,3.13
2019-02-09T12:08:47.028Z,3.00
2019-02-09T12:11:15.192Z,1.60
2019-02-09T12:13:43.421Z,3.03
2019-02-09T12:16:12.496Z,2.50
2019-02-09T12:18:40.695Z,3.17
2019-02-09T12:21:08.905Z,3.57
2019-02-09T12:23:37.083Z,1.57
2019-02-09T12:26:05.256Z,2.13
2019-02-09T12:28:33.468Z,4.80
2019-02-09T12:31:01.685Z,3.50
2019-02-09T12:33:29.892Z,2.90
2019-02-09T12:35:58.100Z,1.60
2019-02-09T12:38:26.280Z,1.80
2019-02-09T12:40:54.497Z,5.47
2019-02-09T12:43:22.689Z,2.90
2019-02-09T12:45:50.918Z,2.53
2019-02-09T12:48:19.091Z,1.97
2019-02-09T12:50:47.300Z,3.73
2019-02-09T12:53:15.466Z,4.10
2019-02-09T12:55:43.709Z,2.23
2019-02-09T12:58:12.810Z,3.57
2019-02-09T13:00:41.191Z,2.60
2019-02-09T13:03:13.673Z,2.90
2019-02-09T13:05:41.850Z,2.87
2019-02-09T13:08:10.024Z,2.53
2019-02-09T13:10:38.242Z,1.63
2019-02-09T13:13:06.441Z,1.47
2019-02-09T13:15:34.896Z,1.37
2019-02-09T13:18:03.117Z,3.23
2019-02-09T13:20:31.985Z,2.50
2019-02-09T13:23:00.372Z,3.37
2019-02-09T13:30:27.662Z,1.80
2019-02-09T13:32:55.934Z,3.60
2019-02-09T13:35:24.146Z,5.65
2019-02-09T13:37:52.500Z,3.70
2019-02-09T13:40:21.778Z,5.20
2019-02-09T13:42:50.147Z,3.40
2019-02-09T13:45:19.862Z,2.77
2019-02-09T13:55:11.499Z,2.93
2019-02-09T13:57:39.828Z,4.53
2019-02-09T14:00:09.569Z,2.80
2019-02-09T14:02:37.781Z,6.10
2019-02-09T14:05:07.136Z,3.43
2019-02-09T14:07:35.346Z,1.57
2019-02-09T14:10:04.892Z,2.90
2019-02-09T14:12:33.980Z,3.20
2019-02-09T14:15:02.211Z,2.63
2019-02-09T14:17:30.396Z,5.07
2019-02-09T14:19:58.596Z,3.50
2019-02-09T14:22:26.804Z,3.90
2019-02-09T14:24:55.020Z,3.70
2019-02-09T14:29:51.604Z,2.53
2019-02-09T14:32:19.800Z,2.03
2019-02-09T14:34:48.002Z,1.63
2019-02-09T14:37:16.187Z,3.80
2019-02-09T14:39:44.464Z,3.65
2019-02-09T14:42:12.687Z,5.35
2019-02-09T14:44:40.892Z,7.30
2019-02-09T14:47:09.121Z,10.13
2019-02-09T14:49:37.287Z,4.50
2019-02-09T14:52:05.560Z,3.43
2019-02-09T14:54:33.748Z,5.27
2019-02-09T14:57:01.970Z,6.67
2019-02-09T14:59:30.219Z,5.03
2019-02-09T15:01:58.466Z,5.00
2019-02-09T15:04:26.677Z,4.00
2019-02-09T15:06:54.864Z,2.77
2019-02-09T15:09:23.047Z,6.40
2019-02-09T15:11:52.196Z,2.97
2019-02-09T15:14:21.332Z,1.53
2019-02-09T15:16:49.514Z,3.13
2019-02-09T15:19:17.867Z,5.50
2019-02-09T15:21:46.078Z,4.35
2019-02-09T15:24:14.283Z,5.60
2019-02-09T15:26:42.548Z,2.67
2019-02-09T15:29:10.735Z,6.60
2019-02-09T15:31:38.977Z,6.10
2019-02-09T15:34:10.318Z,4.53
2019-02-09T15:36:37.073Z,5.80
2019-02-09T15:39:06.962Z,8.70
2019-02-09T15:41:35.156Z,4.90
2019-02-09T15:44:03.429Z,8.27
2019-02-09T15:46:31.812Z,2.77
2019-02-09T15:49:00.017Z,4.13
2019-02-09T15:51:28.205Z,13.77
2019-02-09T15:53:56.436Z,6.27
2019-02-09T15:56:24.616Z,3.53
2019-02-09T15:58:52.845Z,5.67
2019-02-09T16:01:21.026Z,4.40
2019-02-09T16:03:49.253Z,4.67
2019-02-09T16:06:17.460Z,5.53
2019-02-09T16:08:45.796Z,8.53
2019-02-09T16:11:13.963Z,5.20
2019-02-09T16:13:45.771Z,3.90
2019-02-09T16:16:12.105Z,6.87
2019-02-09T16:18:40.282Z,5.57
2019-02-09T16:21:08.518Z,4.40
2019-02-09T16:23:36.767Z,3.80
2019-02-09T16:26:04.939Z,4.80
2019-02-09T16:28:33.162Z,7.23
2019-02-09T16:31:01.397Z,7.30
2019-02-09T16:33:30.607Z,6.57
2019-02-09T16:35:58.869Z,7.10
2019-02-09T16:38:27.040Z,4.67
2019-02-09T16:40:55.258Z,5.07
2019-02-09T16:43:23.446Z,9.33
2019-02-09T16:45:51.703Z,3.60
2019-02-09T16:48:19.893Z,4.97
2019-02-09T16:53:15.465Z,8.10
2019-02-09T16:55:43.682Z,6.83
2019-02-09T16:58:11.958Z,7.90
2019-02-09T17:00:41.696Z,7.00
2019-02-09T17:03:10.500Z,6.17
2019-02-09T17:05:38.962Z,6.70
2019-02-09T17:08:07.392Z,6.27
2019-02-09T17:10:35.624Z,6.63
2019-02-09T17:13:04.588Z,3.70
2019-02-09T17:15:32.801Z,5.53
2019-02-09T17:18:01.023Z,7.03
2019-02-09T17:22:56.596Z,6.20
2019-02-09T17:25:25.356Z,5.03
2019-02-09T17:27:53.527Z,3.35
2019-02-09T17:30:23.287Z,7.50
2019-02-09T17:32:51.492Z,7.37
2019-02-09T17:35:19.814Z,9.80
2019-02-09T17:37:48.281Z,9.25
2019-02-09T17:40:18.029Z,4.80
2019-02-09T17:42:53.161Z,4.67
2019-02-09T17:45:17.670Z,4.60
2019-02-09T17:47:45.905Z,5.60
2019-02-09T17:55:10.402Z,2.90
2019-02-09T18:00:10.481Z,3.37
2019-02-09T18:02:38.728Z,7.00
2019-02-09T18:05:07.279Z,9.70
2019-02-09T18:07:35.481Z,5.63
2019-02-09T18:10:05.229Z,7.80
2019-02-09T18:12:33.461Z,10.27
2019-02-09T18:15:01.665Z,9.57
2019-02-09T18:17:29.870Z,10.30
2019-02-09T18:19:58.051Z,7.57
2019-02-09T18:22:26.255Z,8.67
2019-02-09T18:24:54.451Z,10.20
2019-02-09T18:27:22.657Z,8.70
2019-02-09T18:29:50.876Z,13.40
2019-02-09T18:32:19.048Z,6.03
2019-02-09T18:34:47.269Z,10.30
2019-02-09T18:37:15.449Z,9.23
2019-02-09T18:39:43.644Z,7.20
2019-02-09T18:42:11.824Z,9.23
2019-02-09T18:44:40.038Z,12.50
2019-02-09T18:47:08.265Z,7.80
2019-02-09T18:49:36.552Z,13.63
2019-02-09T18:52:04.781Z,9.03
2019-02-09T18:54:33.033Z,6.30
2019-02-09T18:57:01.208Z,13.80
2019-02-09T18:59:29.468Z,9.03
2019-02-09T19:01:57.696Z,4.90
2019-02-09T19:04:25.894Z,7.15
2019-02-09T19:06:54.101Z,4.80
2019-02-09T19:09:22.414Z,9.90
2019-02-09T19:11:50.708Z,8.37
2019-02-09T19:14:18.949Z,9.00
2019-02-09T19:16:47.225Z,5.90
2019-02-09T19:19:15.417Z,6.70
2019-02-09T19:21:43.617Z,11.67
2019-02-09T19:24:11.791Z,7.37
2019-02-09T19:26:39.976Z,10.73
2019-02-09T19:29:08.223Z,6.30
2019-02-09T19:31:36.427Z,7.83
2019-02-09T19:34:04.714Z,8.57
2019-02-09T19:36:32.879Z,7.57
2019-02-09T19:39:01.095Z,8.97
2019-02-09T19:41:29.293Z,6.13
2019-02-09T19:43:57.524Z,10.13
2019-02-09T19:46:25.771Z,6.30
2019-02-09T19:48:54.005Z,15.30
2019-02-09T19:51:22.209Z,6.23
2019-02-09T19:53:51.152Z,7.50
2019-02-09T19:56:20.804Z,8.73
2019-02-09T19:58:48.986Z,7.85
2019-02-09T20:03:44.682Z,9.40
2019-02-09T20:06:12.911Z,15.20
2019-02-09T20:08:41.132Z,5.20
2019-02-09T20:11:09.373Z,5.10
2019-02-09T20:13:38.515Z,7.37
2019-02-09T20:16:06.698Z,4.83
2019-02-09T20:18:34.870Z,4.53
2019-02-09T20:21:03.089Z,5.93
2019-02-09T20:23:31.267Z,14.47
2019-02-09T20:25:59.473Z,9.90
2019-02-09T20:28:27.683Z,5.40
2019-02-09T20:30:55.858Z,8.10
2019-02-09T20:33:24.069Z,5.83
2019-02-09T20:35:52.254Z,4.90
2019-02-09T20:38:20.424Z,3.87
2019-02-09T20:40:50.300Z,6.50
2019-02-09T20:43:19.643Z,7.67
2019-02-09T20:45:47.883Z,3.53
2019-02-09T20:48:16.078Z,9.60
2019-02-09T20:50:44.385Z,4.70
2019-02-09T20:53:12.556Z,8.37
2019-02-09T20:55:40.732Z,3.40
2019-02-09T20:58:09.707Z,6.23
2019-02-09T21:00:37.987Z,5.80
2019-02-09T21:03:06.232Z,6.90
2019-02-09T21:05:36.364Z,8.57
2019-02-09T21:08:05.451Z,7.57
2019-02-09T21:10:40.408Z,5.73
2019-02-09T21:13:08.597Z,8.70
2019-02-09T21:15:36.870Z,7.40
2019-02-09T21:18:05.821Z,8.90
2019-02-09T21:20:34.037Z,8.23
2019-02-09T21:23:02.261Z,5.30
2019-02-09T21:25:40.606Z,6.77
2019-02-09T21:28:08.917Z,7.65
2019-02-09T21:30:37.111Z,5.83
2019-02-09T21:33:05.947Z,7.30
2019-02-09T21:35:34.135Z,7.33
2019-02-09T21:38:02.353Z,7.53
2019-02-09T21:40:31.036Z,5.00
2019-02-09T21:42:59.679Z,6.80
2019-02-09T21:45:27.958Z,9.10
2019-02-09T21:47:56.195Z,8.33
2019-02-09T21:50:26.356Z,11.13
2019-02-09T21:52:54.581Z,9.13
2019-02-09T21:55:22.964Z,5.43
2019-02-09T21:57:51.279Z,7.57
2019-02-09T22:00:26.320Z,10.60
2019-02-09T22:02:55.011Z,7.57
2019-02-09T22:05:23.257Z,7.00
2019-02-09T22:07:51.458Z,10.83
2019-02-09T22:10:20.632Z,4.80
2019-02-09T22:12:48.905Z,8.97
2019-02-09T22:15:18.776Z,5.00
2019-02-09T22:17:46.970Z,6.63
2019-02-09T22:20:16.739Z,7.73
2019-02-09T22:22:45.108Z,4.80
2019-02-09T22:25:14.854Z,13.40
2019-02-09T22:27:43.416Z,4.93
2019-02-09T22:30:13.336Z,7.90
2019-02-09T22:32:41.824Z,7.43
2019-02-09T22:35:10.305Z,4.70
2019-02-09T22:37:38.508Z,4.70
2019-02-09T22:40:08.275Z,6.50
2019-02-09T22:42:36.491Z,5.67
2019-02-09T22:45:06.221Z,14.43
2019-02-09T22:47:34.425Z,5.53
2019-02-09T22:50:02.633Z,6.40
2019-02-09T22:52:31.197Z,11.43
2019-02-09T22:55:00.625Z,5.83
2019-02-09T22:57:28.820Z,8.07
2019-02-09T22:59:57.036Z,6.70
2019-02-09T23:02:25.248Z,8.00
2019-02-09T23:04:53.912Z,7.40
2019-02-09T23:07:22.100Z,8.57
2019-02-09T23:09:50.276Z,6.57
2019-02-09T23:12:18.501Z,4.97
2019-02-09T23:14:46.696Z,8.03
2019-02-09T23:17:14.878Z,7.90
2019-02-09T23:19:43.092Z,5.27
2019-02-09T23:22:11.264Z,7.00
2019-02-09T23:24:40.332Z,15.10
2019-02-09T23:27:08.528Z,9.40
2019-02-09T23:29:36.711Z,4.53
2019-02-09T23:32:04.959Z,5.90
2019-02-09T23:34:33.128Z,5.67
2019-02-09T23:37:01.353Z,6.57
2019-02-09T23:39:29.531Z,7.80
2019-02-09T23:41:57.725Z,5.80
2019-02-09T23:44:25.910Z,7.00
2019-02-09T23:46:54.100Z,7.40
2019-02-09T23:49:22.306Z,7.60
2019-02-09T23:51:50.492Z,11.83
2019-02-09T23:54:18.667Z,8.13
2019-02-09T23:56:46.859Z,9.90
2019-02-09T23:59:15.077Z,6.93
